createdAt,value
2023-04-30T00:00:22.720Z,98.61
2023-04-30T00:01:22.689Z,98.66
2023-04-30T00:02:22.818Z,98.71
2023-04-30T00:03:22.784Z,98.55
2023-04-30T00:04:22.775Z,98.71
2023-04-30T00:05:22.668Z,98.71
2023-04-30T00:06:22.695Z,98.50
2023-04-30T00:07:22.680Z,98.46
2023-04-30T00:08:22.626Z,98.41
2023-04-30T00:09:22.625Z,98.05
2023-04-30T00:10:22.595Z,98.15
2023-04-30T00:11:22.596Z,98.42
2023-04-30T00:12:22.588Z,97.28
2023-04-30T00:13:22.578Z,97.28
2023-04-30T00:14:22.569Z,97.18
2023-04-30T00:15:22.559Z,97.60
2023-04-30T00:16:22.617Z,97.80
2023-04-30T00:17:22.564Z,98.46
2023-04-30T00:18:22.510Z,98.05
2023-04-30T00:19:22.506Z,97.80
2023-04-30T00:20:22.492Z,98.05
2023-04-30T00:21:22.545Z,97.33
2023-04-30T00:22:22.467Z,97.28
2023-04-30T00:23:22.470Z,97.90
2023-04-30T00:24:22.479Z,98.15
2023-04-30T00:25:22.436Z,98.00
2023-04-30T00:26:22.424Z,97.02
2023-04-30T00:27:22.432Z,97.74
2023-04-30T00:28:22.404Z,97.64
2023-04-30T00:29:22.389Z,97.53
2023-04-30T00:30:22.390Z,98.36
2023-04-30T00:31:22.386Z,98.46
2023-04-30T00:32:22.521Z,98.71
2023-04-30T00:33:22.369Z,98.05
2023-04-30T00:34:22.340Z,98.46
2023-04-30T00:35:22.328Z,97.74
2023-04-30T00:36:22.314Z,97.85
2023-04-30T00:37:22.312Z,97.85
2023-04-30T00:38:22.291Z,97.43
2023-04-30T00:39:22.324Z,98.05
2023-04-30T00:40:22.279Z,98.05
2023-04-30T00:41:22.254Z,98.67
2023-04-30T00:42:22.262Z,99.18
2023-04-30T00:43:22.243Z,98.25
2023-04-30T00:44:22.237Z,98.25
2023-04-30T00:45:22.238Z,98.36
2023-04-30T00:46:22.319Z,97.95
2023-04-30T00:47:22.237Z,97.85
2023-04-30T00:48:22.181Z,98.50
2023-04-30T00:49:22.171Z,98.05
2023-04-30T00:50:22.176Z,98.36
2023-04-30T00:51:22.156Z,98.41
2023-04-30T00:52:22.142Z,98.46
2023-04-30T00:53:22.134Z,98.25
2023-04-30T00:54:22.121Z,98.36
2023-04-30T00:55:22.121Z,98.30
2023-04-30T00:56:22.107Z,97.99
2023-04-30T00:57:22.108Z,98.50
2023-04-30T00:58:22.074Z,98.10
2023-04-30T00:59:22.072Z,98.76
2023-04-30T01:00:22.076Z,98.50
2023-04-30T01:01:22.079Z,98.82
2023-04-30T01:02:22.127Z,98.45
2023-04-30T01:03:22.060Z,98.41
2023-04-30T01:04:22.012Z,98.30
2023-04-30T01:05:22.003Z,98.45
2023-04-30T01:06:22.006Z,98.50
2023-04-30T01:07:21.967Z,98.61
2023-04-30T01:08:21.965Z,98.86
2023-04-30T01:09:21.959Z,98.86
2023-04-30T01:10:21.948Z,98.82
2023-04-30T01:11:21.961Z,99.07
2023-04-30T01:12:21.923Z,98.92
2023-04-30T01:13:21.901Z,98.76
2023-04-30T01:14:21.897Z,99.07
2023-04-30T01:15:21.892Z,98.76
2023-04-30T01:16:21.913Z,99.73
2023-04-30T01:17:21.889Z,99.27
2023-04-30T01:18:21.970Z,99.52
2023-04-30T01:19:21.835Z,98.91
2023-04-30T01:20:21.837Z,99.17
2023-04-30T01:21:21.831Z,99.43
2023-04-30T01:22:21.808Z,99.43
2023-04-30T01:23:21.806Z,99.01
2023-04-30T01:24:21.780Z,99.84
2023-04-30T01:25:21.773Z,99.01
2023-04-30T01:26:21.774Z,99.11
2023-04-30T01:27:21.818Z,99.22
2023-04-30T01:28:21.734Z,99.32
2023-04-30T01:29:21.734Z,99.32
2023-04-30T01:30:21.714Z,99.52
2023-04-30T01:31:21.733Z,99.43
2023-04-30T01:32:21.719Z,99.43
2023-04-30T01:33:21.704Z,99.01
2023-04-30T01:34:21.678Z,99.43
2023-04-30T01:35:21.667Z,99.43
2023-04-30T01:36:21.654Z,99.32
2023-04-30T01:37:21.642Z,99.94
2023-04-30T01:38:21.639Z,99.58
2023-04-30T01:39:21.639Z,99.43
2023-04-30T01:40:21.611Z,99.43
2023-04-30T01:41:21.597Z,98.91
2023-04-30T01:42:21.586Z,98.86
2023-04-30T01:43:21.612Z,99.11
2023-04-30T01:44:21.581Z,98.91
2023-04-30T01:45:21.573Z,98.80
2023-04-30T01:46:21.592Z,99.48
2023-04-30T01:47:21.575Z,99.38
2023-04-30T01:48:21.519Z,99.69
2023-04-30T01:49:21.513Z,99.94
2023-04-30T01:50:21.526Z,99.99
2023-04-30T01:51:21.514Z,99.73
2023-04-30T01:52:21.483Z,99.99
2023-04-30T01:53:21.471Z,99.99
2023-04-30T01:54:21.491Z,99.99
2023-04-30T01:55:21.461Z,99.69
2023-04-30T01:56:21.447Z,99.27
2023-04-30T01:57:21.448Z,99.52
2023-04-30T01:58:21.415Z,99.48
2023-04-30T01:59:21.427Z,99.99
2023-04-30T02:00:21.408Z,99.99
2023-04-30T02:01:21.420Z,99.99
2023-04-30T02:02:21.444Z,99.99
2023-04-30T02:03:21.449Z,99.99
2023-04-30T02:04:21.346Z,99.99
2023-04-30T02:05:21.340Z,99.99
2023-04-30T02:06:21.420Z,99.90
2023-04-30T02:07:21.334Z,99.99
2023-04-30T02:08:21.319Z,99.99
2023-04-30T02:09:21.317Z,99.38
2023-04-30T02:10:21.289Z,99.27
2023-04-30T02:11:21.291Z,99.48
2023-04-30T02:12:21.257Z,99.69
2023-04-30T02:13:21.257Z,99.58
2023-04-30T02:14:21.247Z,99.07
2023-04-30T02:15:21.263Z,99.07
2023-04-30T02:16:21.240Z,99.17
2023-04-30T02:17:21.215Z,99.27
2023-04-30T02:18:21.234Z,99.27
2023-04-30T02:19:21.193Z,99.23
2023-04-30T02:20:21.186Z,99.17
2023-04-30T02:21:21.219Z,98.97
2023-04-30T02:22:21.318Z,99.07
2023-04-30T02:23:21.153Z,99.07
2023-04-30T02:24:21.141Z,99.48
2023-04-30T02:25:21.118Z,99.38
2023-04-30T02:26:21.102Z,98.24
2023-04-30T02:27:21.108Z,98.50
2023-04-30T02:28:21.092Z,98.03
2023-04-30T02:29:21.073Z,98.14
2023-04-30T02:30:21.085Z,98.08
2023-04-30T02:31:21.139Z,97.94
2023-04-30T02:32:21.054Z,98.45
2023-04-30T02:33:21.042Z,98.14
2023-04-30T02:34:21.024Z,98.35
2023-04-30T02:35:21.004Z,98.45
2023-04-30T02:36:21.031Z,98.19
2023-04-30T02:37:20.984Z,98.97
2023-04-30T02:38:20.970Z,99.07
2023-04-30T02:39:20.979Z,99.48
2023-04-30T02:40:20.969Z,99.84
2023-04-30T02:41:20.946Z,98.29
2023-04-30T02:42:20.929Z,98.39
2023-04-30T02:43:20.945Z,97.98
2023-04-30T02:44:20.903Z,98.14
2023-04-30T02:45:20.914Z,98.19
2023-04-30T02:46:20.942Z,98.19
2023-04-30T02:47:20.908Z,98.60
2023-04-30T02:48:20.877Z,98.50
2023-04-30T02:49:20.854Z,98.60
2023-04-30T02:50:20.835Z,99.11
2023-04-30T02:51:20.884Z,98.80
2023-04-30T02:52:20.817Z,98.70
2023-04-30T02:53:20.811Z,99.32
2023-04-30T02:54:20.798Z,99.43
2023-04-30T02:55:20.791Z,99.63
2023-04-30T02:56:20.774Z,99.43
2023-04-30T02:57:20.800Z,99.52
2023-04-30T02:58:20.762Z,99.43
2023-04-30T02:59:20.749Z,99.43
2023-04-30T03:00:20.741Z,99.73
2023-04-30T03:01:20.837Z,99.32
2023-04-30T03:02:20.737Z,99.99
2023-04-30T03:03:20.945Z,99.99
2023-04-30T03:04:20.689Z,99.99
2023-04-30T03:05:20.695Z,99.94
2023-04-30T03:06:20.711Z,99.94
2023-04-30T03:07:20.655Z,99.99
2023-04-30T03:08:20.642Z,99.99
2023-04-30T03:09:20.650Z,99.99
2023-04-30T03:10:20.623Z,99.84
2023-04-30T03:11:20.628Z,99.32
2023-04-30T03:12:20.599Z,99.63
2023-04-30T03:13:20.601Z,99.84
2023-04-30T03:14:20.574Z,99.99
2023-04-30T03:15:20.580Z,99.99
2023-04-30T03:16:20.577Z,99.22
2023-04-30T03:17:20.580Z,99.43
2023-04-30T03:18:20.533Z,99.22
2023-04-30T03:19:20.550Z,99.63
2023-04-30T03:20:20.507Z,99.63
2023-04-30T03:21:20.520Z,99.63
2023-04-30T03:22:20.493Z,99.63
2023-04-30T03:23:20.496Z,99.43
2023-04-30T03:24:20.467Z,99.43
2023-04-30T03:25:20.462Z,99.63
2023-04-30T03:26:20.453Z,99.11
2023-04-30T03:27:20.455Z,99.32
2023-04-30T03:28:20.426Z,99.63
2023-04-30T03:29:20.442Z,99.99
2023-04-30T03:30:20.416Z,99.99
2023-04-30T03:31:20.432Z,99.43
2023-04-30T03:32:20.385Z,99.63
2023-04-30T03:33:20.459Z,99.32
2023-04-30T03:34:20.379Z,99.32
2023-04-30T03:35:20.374Z,99.63
2023-04-30T03:36:20.340Z,99.99
2023-04-30T03:37:20.334Z,99.43
2023-04-30T03:38:20.327Z,99.32
2023-04-30T03:39:20.348Z,99.78
2023-04-30T03:40:20.296Z,99.47
2023-04-30T03:41:20.294Z,99.32
2023-04-30T03:42:20.278Z,99.32
2023-04-30T03:43:20.279Z,99.32
2023-04-30T03:44:20.256Z,99.16
2023-04-30T03:45:20.273Z,99.22
2023-04-30T03:46:20.290Z,99.57
2023-04-30T03:47:20.228Z,99.63
2023-04-30T03:48:20.222Z,99.78
2023-04-30T03:49:20.205Z,99.99
2023-04-30T03:50:20.192Z,99.99
2023-04-30T03:51:20.227Z,99.99
2023-04-30T03:52:20.170Z,99.99
2023-04-30T03:53:20.161Z,99.99
2023-04-30T03:54:20.152Z,99.99
2023-04-30T03:55:20.140Z,99.99
2023-04-30T03:56:20.129Z,99.99
2023-04-30T03:57:20.161Z,99.99
2023-04-30T03:58:20.105Z,99.99
2023-04-30T03:59:20.110Z,99.99
2023-04-30T04:00:20.084Z,99.99
2023-04-30T04:01:20.092Z,99.99
2023-04-30T04:02:20.108Z,99.99
2023-04-30T04:03:20.174Z,99.99
2023-04-30T04:04:20.128Z,99.99
2023-04-30T04:05:20.045Z,99.99
2023-04-30T04:06:20.040Z,99.99
2023-04-30T04:07:20.049Z,99.99
2023-04-30T04:08:20.009Z,99.22
2023-04-30T04:09:20.053Z,98.75
2023-04-30T04:10:19.993Z,98.96
2023-04-30T04:11:19.968Z,98.75
2023-04-30T04:12:19.953Z,98.80
2023-04-30T04:13:19.947Z,98.65
2023-04-30T04:14:19.947Z,99.11
2023-04-30T04:15:19.957Z,99.99
2023-04-30T04:16:19.935Z,99.99
2023-04-30T04:17:19.906Z,99.99
2023-04-30T04:18:19.894Z,99.99
2023-04-30T04:19:19.881Z,99.47
2023-04-30T04:20:19.876Z,99.63
2023-04-30T04:21:19.876Z,99.88
2023-04-30T04:22:19.857Z,99.94
2023-04-30T04:23:19.872Z,99.99
2023-04-30T04:24:19.833Z,99.43
2023-04-30T04:25:19.827Z,99.68
2023-04-30T04:26:19.806Z,99.01
2023-04-30T04:27:19.825Z,98.91
2023-04-30T04:28:19.786Z,99.43
2023-04-30T04:29:19.772Z,99.63
2023-04-30T04:30:19.763Z,99.63
2023-04-30T04:31:19.790Z,99.43
2023-04-30T04:32:19.742Z,97.94
2023-04-30T04:33:19.762Z,97.98
2023-04-30T04:34:19.708Z,97.47
2023-04-30T04:35:19.706Z,98.39
2023-04-30T04:36:19.700Z,98.39
2023-04-30T04:37:19.684Z,98.86
2023-04-30T04:38:19.668Z,98.80
2023-04-30T04:39:19.699Z,99.63
2023-04-30T04:40:19.646Z,99.99
2023-04-30T04:41:19.643Z,99.99
2023-04-30T04:42:19.624Z,99.79
2023-04-30T04:43:19.622Z,99.99
2023-04-30T04:44:19.626Z,99.99
2023-04-30T04:45:19.607Z,99.79
2023-04-30T04:46:19.645Z,98.80
2023-04-30T04:47:19.624Z,99.90
2023-04-30T04:48:19.556Z,99.99
2023-04-30T04:49:19.548Z,99.99
2023-04-30T04:50:19.548Z,99.99
2023-04-30T04:51:19.572Z,99.99
2023-04-30T04:52:19.514Z,99.99
2023-04-30T04:53:19.504Z,99.38
2023-04-30T04:54:19.496Z,99.38
2023-04-30T04:55:19.519Z,99.99
2023-04-30T04:56:19.483Z,99.99
2023-04-30T04:57:19.556Z,99.90
2023-04-30T04:58:19.446Z,99.94
2023-04-30T04:59:19.441Z,99.90
2023-04-30T05:00:19.426Z,99.90
2023-04-30T05:01:19.449Z,99.90
2023-04-30T05:02:19.406Z,99.99
2023-04-30T05:03:19.497Z,99.99
2023-04-30T05:04:19.385Z,99.07
2023-04-30T05:05:19.411Z,99.63
2023-04-30T05:06:19.382Z,98.86
2023-04-30T05:07:19.370Z,98.97
2023-04-30T05:08:19.336Z,98.97
2023-04-30T05:09:19.366Z,98.97
2023-04-30T05:10:19.319Z,99.17
2023-04-30T05:11:19.329Z,99.58
2023-04-30T05:12:19.292Z,99.23
2023-04-30T05:13:19.285Z,99.13
2023-04-30T05:14:19.271Z,99.43
2023-04-30T05:15:19.296Z,99.38
2023-04-30T05:16:19.279Z,99.43
2023-04-30T05:17:19.241Z,99.18
2023-04-30T05:18:19.227Z,99.18
2023-04-30T05:19:19.224Z,99.70
2023-04-30T05:20:19.214Z,99.49
2023-04-30T05:21:19.228Z,99.39
2023-04-30T05:22:19.192Z,99.29
2023-04-30T05:23:19.176Z,97.95
2023-04-30T05:24:19.169Z,97.74
2023-04-30T05:25:19.155Z,97.64
2023-04-30T05:26:19.154Z,97.23
2023-04-30T05:27:19.155Z,96.50
2023-04-30T05:28:19.121Z,95.89
2023-04-30T05:29:19.110Z,95.74
2023-04-30T05:30:19.099Z,95.95
2023-04-30T05:31:20.969Z,96.05
2023-04-30T05:32:19.084Z,95.84
2023-04-30T05:33:19.087Z,95.74
2023-04-30T05:34:19.052Z,98.06
2023-04-30T05:35:19.050Z,98.00
2023-04-30T05:36:19.042Z,97.90
2023-04-30T05:37:19.020Z,97.49
2023-04-30T05:38:19.024Z,97.90
2023-04-30T05:39:19.012Z,98.11
2023-04-30T05:40:19.010Z,97.74
2023-04-30T05:41:18.971Z,98.52
2023-04-30T05:42:19.006Z,98.00
2023-04-30T05:43:18.992Z,99.04
2023-04-30T05:44:18.946Z,98.72
2023-04-30T05:45:18.964Z,98.42
2023-04-30T05:46:18.937Z,98.00
2023-04-30T05:47:18.924Z,98.21
2023-04-30T05:48:18.965Z,96.97
2023-04-30T05:49:18.888Z,98.42
2023-04-30T05:50:18.880Z,97.96
2023-04-30T05:51:18.887Z,97.80
2023-04-30T05:52:18.860Z,96.52
2023-04-30T05:53:18.858Z,97.14
2023-04-30T05:54:18.834Z,97.75
2023-04-30T05:55:18.825Z,97.14
2023-04-30T05:56:18.833Z,96.72
2023-04-30T05:57:18.825Z,94.77
2023-04-30T05:58:18.802Z,95.28
2023-04-30T05:59:18.800Z,94.62
2023-04-30T06:00:18.773Z,94.83
2023-04-30T06:01:18.760Z,94.42
2023-04-30T06:02:18.771Z,94.62
2023-04-30T06:03:18.786Z,95.14
2023-04-30T06:04:18.748Z,95.14
2023-04-30T06:05:18.713Z,94.21
2023-04-30T06:06:18.757Z,94.31
2023-04-30T06:07:18.693Z,94.68
2023-04-30T06:08:18.700Z,93.14
2023-04-30T06:09:18.687Z,92.69
2023-04-30T06:10:18.670Z,90.95
2023-04-30T06:11:18.651Z,91.47
2023-04-30T06:12:18.641Z,90.40
2023-04-30T06:13:18.641Z,90.03
2023-04-30T06:14:18.639Z,91.93
2023-04-30T06:15:18.638Z,93.16
2023-04-30T06:16:18.661Z,92.64
2023-04-30T06:17:18.592Z,91.04
2023-04-30T06:18:18.577Z,90.85
2023-04-30T06:19:18.565Z,90.71
2023-04-30T06:20:18.564Z,89.83
2023-04-30T06:21:18.560Z,90.08
2023-04-30T06:22:18.535Z,90.38
2023-04-30T06:23:18.531Z,90.73
2023-04-30T06:24:18.515Z,90.38
2023-04-30T06:25:18.500Z,91.55
2023-04-30T06:26:18.501Z,91.51
2023-04-30T06:27:18.497Z,91.20
2023-04-30T06:28:18.471Z,89.83
2023-04-30T06:29:18.459Z,91.06
2023-04-30T06:30:18.457Z,90.85
2023-04-30T06:31:18.503Z,90.69
2023-04-30T06:32:18.434Z,91.06
2023-04-30T06:33:18.430Z,89.42
2023-04-30T06:34:18.401Z,91.06
2023-04-30T06:35:18.385Z,91.16
2023-04-30T06:36:18.382Z,90.75
2023-04-30T06:37:18.375Z,90.44
2023-04-30T06:38:18.398Z,90.85
2023-04-30T06:39:18.358Z,90.75
2023-04-30T06:40:18.346Z,90.65
2023-04-30T06:41:18.344Z,90.85
2023-04-30T06:42:18.335Z,90.03
2023-04-30T06:43:18.306Z,90.44
2023-04-30T06:44:18.292Z,90.95
2023-04-30T06:45:18.294Z,90.03
2023-04-30T06:46:18.421Z,89.97
2023-04-30T06:47:18.479Z,90.48
2023-04-30T06:48:18.257Z,90.80
2023-04-30T06:49:18.240Z,90.69
2023-04-30T06:50:18.232Z,91.72
2023-04-30T06:51:18.245Z,90.75
2023-04-30T06:52:18.240Z,91.06
2023-04-30T06:53:18.209Z,90.85
2023-04-30T06:54:18.181Z,90.95
2023-04-30T06:55:18.171Z,90.34
2023-04-30T06:56:18.159Z,90.55
2023-04-30T06:57:18.164Z,90.03
2023-04-30T06:58:18.140Z,90.85
2023-04-30T06:59:18.162Z,90.30
2023-04-30T07:00:18.113Z,90.30
2023-04-30T07:01:18.126Z,90.09
2023-04-30T07:02:19.397Z,90.40
2023-04-30T07:03:18.198Z,90.44
2023-04-30T07:04:18.087Z,90.87
2023-04-30T07:05:18.066Z,91.02
2023-04-30T07:06:18.151Z,91.12
2023-04-30T07:07:18.042Z,89.99
2023-04-30T07:08:18.025Z,91.33
2023-04-30T07:09:18.032Z,92.10
2023-04-30T07:10:18.014Z,90.56
2023-04-30T07:11:17.996Z,91.28
2023-04-30T07:12:17.980Z,90.83
2023-04-30T07:13:17.972Z,89.43
2023-04-30T07:14:17.995Z,89.70
2023-04-30T07:15:17.971Z,89.43
2023-04-30T07:16:17.976Z,89.84
2023-04-30T07:17:18.006Z,90.50
2023-04-30T07:18:17.916Z,90.91
2023-04-30T07:19:17.937Z,91.69
2023-04-30T07:20:17.918Z,92.61
2023-04-30T07:21:17.903Z,92.21
2023-04-30T07:22:17.875Z,90.83
2023-04-30T07:23:17.866Z,89.33
2023-04-30T07:24:17.851Z,89.75
2023-04-30T07:25:17.844Z,91.28
2023-04-30T07:26:17.840Z,90.16
2023-04-30T07:27:17.843Z,90.46
2023-04-30T07:28:17.819Z,89.89
2023-04-30T07:29:17.804Z,90.46
2023-04-30T07:30:17.787Z,91.38
2023-04-30T07:31:17.811Z,91.80
2023-04-30T07:32:17.768Z,91.49
2023-04-30T07:33:17.939Z,92.51
2023-04-30T07:34:17.744Z,91.75
2023-04-30T07:35:17.764Z,91.59
2023-04-30T07:36:17.725Z,91.69
2023-04-30T07:37:17.728Z,92.41
2023-04-30T07:38:17.699Z,92.61
2023-04-30T07:39:17.729Z,93.85
2023-04-30T07:40:28.990Z,92.72
2023-04-30T07:41:18.674Z,92.61
2023-04-30T07:42:17.666Z,92.78
2023-04-30T07:43:17.660Z,93.64
2023-04-30T07:44:17.646Z,91.90
2023-04-30T07:45:17.668Z,93.02
2023-04-30T07:46:17.639Z,92.61
2023-04-30T07:47:17.622Z,92.93
2023-04-30T07:48:17.598Z,92.51
2023-04-30T07:49:17.590Z,92.98
2023-04-30T07:50:17.575Z,93.70
2023-04-30T07:51:17.609Z,92.57
2023-04-30T07:52:17.553Z,92.12
2023-04-30T07:53:17.544Z,92.27
2023-04-30T07:54:17.542Z,92.83
2023-04-30T07:55:17.561Z,93.25
2023-04-30T07:56:17.541Z,92.78
2023-04-30T07:57:17.536Z,92.78
2023-04-30T07:58:17.494Z,94.83
2023-04-30T07:59:17.487Z,94.42
2023-04-30T08:00:17.494Z,93.39
2023-04-30T08:01:17.465Z,94.32
2023-04-30T08:02:17.523Z,94.27
2023-04-30T08:03:17.532Z,92.36
2023-04-30T08:04:17.465Z,93.95
2023-04-30T08:05:17.431Z,94.37
2023-04-30T08:06:17.434Z,93.66
2023-04-30T08:07:17.418Z,93.45
2023-04-30T08:08:17.401Z,94.07
2023-04-30T08:09:17.386Z,93.62
2023-04-30T08:10:17.364Z,91.61
2023-04-30T08:11:17.397Z,93.86
2023-04-30T08:12:17.344Z,91.09
2023-04-30T08:13:17.334Z,92.22
2023-04-30T08:14:17.340Z,92.63
2023-04-30T08:15:17.326Z,91.46
2023-04-30T08:16:17.356Z,91.52
2023-04-30T08:17:17.290Z,92.90
2023-04-30T08:18:17.552Z,92.34
2023-04-30T08:19:17.269Z,91.42
2023-04-30T08:20:17.267Z,90.36
2023-04-30T08:21:17.256Z,91.58
2023-04-30T08:22:17.247Z,89.23
2023-04-30T08:23:17.345Z,89.94
2023-04-30T08:24:17.213Z,90.36
2023-04-30T08:25:17.253Z,90.72
2023-04-30T08:26:17.193Z,89.56
2023-04-30T08:27:17.211Z,89.97
2023-04-30T08:28:17.171Z,88.98
2023-04-30T08:29:17.160Z,88.98
2023-04-30T08:30:17.150Z,88.84
2023-04-30T08:31:17.178Z,88.43
2023-04-30T08:32:17.193Z,88.94
2023-04-30T08:33:17.290Z,88.06
2023-04-30T08:34:17.103Z,88.88
2023-04-30T08:35:17.111Z,89.97
2023-04-30T08:36:17.084Z,88.33
2023-04-30T08:37:17.079Z,87.47
2023-04-30T08:38:17.056Z,87.67
2023-04-30T08:39:17.089Z,87.37
2023-04-30T08:40:17.047Z,87.98
2023-04-30T08:41:17.031Z,88.45
2023-04-30T08:42:17.039Z,87.12
2023-04-30T08:43:17.006Z,85.89
2023-04-30T08:44:16.994Z,85.38
2023-04-30T08:45:17.002Z,85.79
2023-04-30T08:46:17.136Z,85.89
2023-04-30T08:47:16.960Z,87.32
2023-04-30T08:48:16.965Z,86.47
2023-04-30T08:49:17.067Z,86.33
2023-04-30T08:50:16.924Z,84.18
2023-04-30T08:51:16.938Z,83.51
2023-04-30T08:52:16.903Z,84.90
2023-04-30T08:53:16.894Z,85.27
2023-04-30T08:54:16.893Z,84.45
2023-04-30T08:55:16.896Z,82.96
2023-04-30T08:56:16.857Z,83.81
2023-04-30T08:57:16.864Z,82.04
2023-04-30T08:58:16.833Z,83.26
2023-04-30T08:59:16.827Z,84.14
2023-04-30T09:00:16.823Z,83.80
2023-04-30T09:01:16.859Z,84.47
2023-04-30T09:02:16.821Z,79.34
2023-04-30T09:03:16.832Z,81.88
2023-04-30T09:04:16.773Z,80.66
2023-04-30T09:05:16.787Z,79.34
2023-04-30T09:06:16.925Z,80.87
2023-04-30T09:07:16.740Z,77.71
2023-04-30T09:08:16.731Z,77.14
2023-04-30T09:09:16.727Z,76.18
2023-04-30T09:10:16.712Z,76.69
2023-04-30T09:11:16.718Z,78.83
2023-04-30T09:12:18.798Z,76.49
2023-04-30T09:13:16.673Z,76.79
2023-04-30T09:14:16.662Z,76.28
2023-04-30T09:15:16.670Z,80.22
2023-04-30T09:16:16.736Z,77.06
2023-04-30T09:17:16.648Z,75.98
2023-04-30T09:18:16.659Z,77.26
2023-04-30T09:19:16.609Z,78.41
2023-04-30T09:20:16.608Z,79.19
2023-04-30T09:21:16.615Z,77.83
2023-04-30T09:22:16.586Z,76.68
2023-04-30T09:23:16.573Z,70.82
2023-04-30T09:24:17.962Z,72.08
2023-04-30T09:25:16.543Z,71.87
2023-04-30T09:26:17.352Z,77.12
2023-04-30T09:27:16.569Z,74.01
2023-04-30T09:28:16.513Z,73.84
2023-04-30T09:29:16.498Z,74.15
2023-04-30T09:30:16.485Z,73.91
2023-04-30T09:31:16.520Z,70.51
2023-04-30T09:32:16.473Z,72.01
2023-04-30T09:33:16.496Z,71.64
2023-04-30T09:34:16.455Z,71.06
2023-04-30T09:35:16.437Z,73.30
2023-04-30T09:36:16.419Z,72.75
2023-04-30T09:37:16.420Z,72.92
2023-04-30T09:38:16.407Z,74.45
2023-04-30T09:39:16.430Z,72.41
2023-04-30T09:40:16.405Z,74.15
2023-04-30T09:41:16.369Z,76.04
2023-04-30T09:42:16.356Z,72.08
2023-04-30T09:43:16.370Z,71.97
2023-04-30T09:44:16.336Z,73.84
2023-04-30T09:45:16.341Z,73.87
2023-04-30T09:46:16.367Z,73.67
2023-04-30T09:47:16.302Z,74.58
2023-04-30T09:48:17.943Z,74.48
2023-04-30T09:49:16.292Z,79.23
2023-04-30T09:50:16.456Z,71.91
2023-04-30T09:51:16.266Z,73.63
2023-04-30T09:52:16.248Z,72.14
2023-04-30T09:53:16.250Z,73.63
2023-04-30T09:54:16.231Z,73.97
2023-04-30T09:55:16.212Z,72.65
2023-04-30T09:56:16.237Z,72.92
2023-04-30T09:57:16.209Z,70.38
2023-04-30T09:58:16.183Z,70.25
2023-04-30T09:59:16.759Z,73.16
2023-04-30T10:00:16.189Z,70.28
2023-04-30T10:01:16.267Z,67.61
2023-04-30T10:02:16.143Z,69.54
2023-04-30T10:03:16.128Z,70.79
2023-04-30T10:04:16.229Z,69.64
2023-04-30T10:05:16.118Z,70.89
2023-04-30T10:06:16.171Z,71.97
2023-04-30T10:07:17.545Z,70.86
2023-04-30T10:08:16.081Z,73.83
2023-04-30T10:09:16.073Z,72.04
2023-04-30T10:10:16.107Z,71.91
2023-04-30T10:11:16.042Z,71.16
2023-04-30T10:12:16.037Z,70.04
2023-04-30T10:13:16.051Z,72.14
2023-04-30T10:14:16.010Z,71.47
2023-04-30T10:15:16.056Z,72.38
2023-04-30T10:16:16.041Z,70.15
2023-04-30T10:17:15.974Z,70.39
2023-04-30T10:18:15.974Z,70.15
2023-04-30T10:19:15.967Z,70.36
2023-04-30T10:20:15.948Z,70.65
2023-04-30T10:21:15.929Z,72.17
2023-04-30T10:22:15.925Z,70.05
2023-04-30T10:23:15.938Z,71.26
2023-04-30T10:24:15.907Z,70.89
2023-04-30T10:25:15.893Z,70.76
2023-04-30T10:26:15.876Z,71.84
2023-04-30T10:27:15.871Z,71.37
2023-04-30T10:28:15.859Z,70.12
2023-04-30T10:29:15.870Z,70.62
2023-04-30T10:30:15.836Z,69.10
2023-04-30T10:31:15.839Z,70.45
2023-04-30T10:32:15.835Z,67.58
2023-04-30T10:33:16.796Z,70.21
2023-04-30T10:34:15.790Z,69.92
2023-04-30T10:35:15.785Z,69.92
2023-04-30T10:36:15.771Z,69.68
2023-04-30T10:37:15.766Z,69.24
2023-04-30T10:38:15.745Z,67.32
2023-04-30T10:39:16.733Z,67.59
2023-04-30T10:40:15.723Z,66.20
2023-04-30T10:41:15.730Z,67.72
2023-04-30T10:42:15.704Z,68.56
2023-04-30T10:43:15.750Z,67.18
2023-04-30T10:44:15.689Z,66.41
2023-04-30T10:45:15.668Z,69.24
2023-04-30T10:46:15.698Z,67.59
2023-04-30T10:47:15.785Z,68.60
2023-04-30T10:48:15.735Z,70.12
2023-04-30T10:49:15.639Z,66.92
2023-04-30T10:50:15.620Z,65.84
2023-04-30T10:51:15.604Z,67.12
2023-04-30T10:52:15.595Z,65.53
2023-04-30T10:53:15.599Z,67.52
2023-04-30T10:54:15.593Z,63.13
2023-04-30T10:55:15.560Z,63.17
2023-04-30T10:56:15.558Z,64.96
2023-04-30T10:57:15.537Z,66.52
2023-04-30T10:58:15.531Z,63.48
2023-04-30T10:59:15.535Z,66.72
2023-04-30T11:00:15.524Z,68.95
2023-04-30T11:01:15.579Z,64.26
2023-04-30T11:02:15.491Z,65.81
2023-04-30T11:03:15.498Z,61.69
2023-04-30T11:04:15.548Z,65.17
2023-04-30T11:05:15.524Z,60.72
2023-04-30T11:06:15.521Z,63.38
2023-04-30T11:07:15.433Z,63.48
2023-04-30T11:08:15.450Z,64.97
2023-04-30T11:09:15.409Z,66.96
2023-04-30T11:10:15.400Z,65.33
2023-04-30T11:11:15.405Z,64.83
2023-04-30T11:12:15.424Z,66.95
2023-04-30T11:13:15.370Z,65.97
2023-04-30T11:14:15.361Z,67.86
2023-04-30T11:15:15.364Z,67.63
2023-04-30T11:16:15.405Z,70.29
2023-04-30T11:17:15.354Z,65.01
2023-04-30T11:18:15.327Z,67.02
2023-04-30T11:19:15.334Z,67.39
2023-04-30T11:20:15.301Z,67.69
2023-04-30T11:21:15.277Z,66.96
2023-04-30T11:22:15.269Z,63.65
2023-04-30T11:23:21.781Z,66.75
2023-04-30T11:24:16.290Z,67.55
2023-04-30T11:25:15.270Z,67.72
2023-04-30T11:26:15.231Z,66.89
2023-04-30T11:27:15.235Z,67.36
2023-04-30T11:28:15.202Z,64.06
2023-04-30T11:29:15.289Z,65.24
2023-04-30T11:30:15.426Z,67.26
2023-04-30T11:31:15.726Z,65.17
2023-04-30T11:32:15.161Z,63.48
2023-04-30T11:33:15.148Z,64.79
2023-04-30T11:34:15.155Z,66.55
2023-04-30T11:35:15.156Z,62.04
2023-04-30T11:36:15.138Z,66.48
2023-04-30T11:37:15.100Z,68.01
2023-04-30T11:38:15.103Z,61.98
2023-04-30T11:39:15.081Z,64.90
2023-04-30T11:40:15.110Z,63.56
2023-04-30T11:41:15.070Z,60.84
2023-04-30T11:42:15.074Z,61.57
2023-04-30T11:43:15.034Z,63.26
2023-04-30T11:44:15.029Z,61.75
2023-04-30T11:45:15.014Z,62.83
2023-04-30T11:46:15.071Z,62.79
2023-04-30T11:47:15.076Z,62.41
2023-04-30T11:48:14.997Z,64.27
2023-04-30T11:49:14.973Z,62.59
2023-04-30T11:50:14.977Z,63.45
2023-04-30T11:51:14.998Z,63.82
2023-04-30T11:52:14.956Z,62.48
2023-04-30T11:53:14.933Z,63.05
2023-04-30T11:54:14.939Z,65.61
2023-04-30T11:55:14.907Z,62.96
2023-04-30T11:56:14.898Z,64.75
2023-04-30T11:57:14.893Z,60.84
2023-04-30T11:58:14.875Z,59.66
2023-04-30T11:59:14.867Z,63.32
2023-04-30T12:00:14.886Z,63.02
2023-04-30T12:01:14.846Z,62.51
2023-04-30T12:02:14.888Z,63.59
2023-04-30T12:03:14.903Z,61.16
2023-04-30T12:04:14.942Z,62.27
2023-04-30T12:05:14.812Z,62.14
2023-04-30T12:06:14.815Z,62.14
2023-04-30T12:07:14.866Z,63.85
2023-04-30T12:08:14.766Z,62.74
2023-04-30T12:09:14.763Z,66.25
2023-04-30T12:10:14.816Z,63.53
2023-04-30T12:11:14.743Z,62.80
2023-04-30T12:12:14.746Z,62.77
2023-04-30T12:13:14.706Z,60.65
2023-04-30T12:14:14.714Z,59.47
2023-04-30T12:15:14.687Z,62.32
2023-04-30T12:16:14.717Z,61.77
2023-04-30T12:17:14.666Z,62.02
2023-04-30T12:18:14.670Z,60.96
2023-04-30T12:19:14.675Z,61.16
2023-04-30T12:20:14.666Z,62.04
2023-04-30T12:21:14.629Z,60.42
2023-04-30T12:22:14.626Z,60.09
2023-04-30T12:23:14.618Z,62.13
2023-04-30T12:24:14.628Z,61.87
2023-04-30T12:25:14.584Z,57.37
2023-04-30T12:26:14.585Z,58.25
2023-04-30T12:27:14.558Z,62.85
2023-04-30T12:28:14.548Z,57.72
2023-04-30T12:29:15.759Z,59.89
2023-04-30T12:30:14.543Z,60.39
2023-04-30T12:31:14.513Z,58.98
2023-04-30T12:32:14.576Z,60.67
2023-04-30T12:33:14.542Z,60.06
2023-04-30T12:34:14.515Z,59.22
2023-04-30T12:35:14.501Z,60.08
2023-04-30T12:36:14.545Z,63.47
2023-04-30T12:37:14.446Z,59.88
2023-04-30T12:38:14.442Z,60.17
2023-04-30T12:39:14.442Z,62.16
2023-04-30T12:40:14.464Z,61.46
2023-04-30T12:41:14.403Z,59.64
2023-04-30T12:42:14.406Z,61.76
2023-04-30T12:43:14.384Z,60.02
2023-04-30T12:44:14.383Z,60.19
2023-04-30T12:45:14.408Z,60.09
2023-04-30T12:46:14.486Z,60.67
2023-04-30T12:47:14.428Z,59.16
2023-04-30T12:48:14.419Z,60.06
2023-04-30T12:49:14.337Z,61.77
2023-04-30T12:50:14.323Z,61.24
2023-04-30T12:51:14.326Z,60.31
2023-04-30T12:52:14.303Z,59.50